createdAt,value
2023-03-21T00:00:06.833Z,11.30
2023-03-21T00:01:06.805Z,11.30
2023-03-21T00:02:06.847Z,11.90
2023-03-21T00:03:06.752Z,11.40
2023-03-21T00:04:06.772Z,13.00
2023-03-21T00:05:15.537Z,11.80
2023-03-21T00:06:06.683Z,11.60
2023-03-21T00:07:06.662Z,12.80
2023-03-21T00:08:06.662Z,13.00
2023-03-21T00:09:06.601Z,12.00
2023-03-21T00:10:15.367Z,13.20
2023-03-21T00:11:06.548Z,13.70
2023-03-21T00:12:06.534Z,13.00
2023-03-21T00:13:06.511Z,12.50
2023-03-21T00:14:06.499Z,13.20
2023-03-21T00:15:06.450Z,13.30
2023-03-21T00:16:12.935Z,13.80
2023-03-21T00:17:06.403Z,13.90
2023-03-21T00:18:06.380Z,14.10
2023-03-21T00:19:06.483Z,13.60
2023-03-21T00:20:06.332Z,14.60
2023-03-21T00:21:35.916Z,14.50
2023-03-21T00:22:08.285Z,15.90
2023-03-21T00:23:06.251Z,14.80
2023-03-21T00:24:06.253Z,15.50
2023-03-21T00:25:06.205Z,15.40
2023-03-21T00:26:06.190Z,15.50
2023-03-21T00:27:50.106Z,15.20
2023-03-21T00:28:08.532Z,16.00
2023-03-21T00:29:06.100Z,16.60
2023-03-21T00:30:06.084Z,16.80
2023-03-21T00:31:06.056Z,16.50
2023-03-21T00:32:06.029Z,16.40
2023-03-21T00:33:19.834Z,16.00
2023-03-21T00:34:05.989Z,16.50
2023-03-21T00:35:38.280Z,17.20
2023-03-21T00:36:06.609Z,16.40
2023-03-21T00:37:05.897Z,17.30
2023-03-21T00:38:05.874Z,15.90
2023-03-21T00:39:05.849Z,16.00
2023-03-21T00:40:08.651Z,16.00
2023-03-21T00:41:18.815Z,16.70
2023-03-21T00:42:05.770Z,16.90
2023-03-21T00:43:05.750Z,16.50
2023-03-21T00:44:05.726Z,16.40
2023-03-21T00:45:05.702Z,16.10
2023-03-21T00:46:05.677Z,15.80
2023-03-21T00:47:07.769Z,16.00
2023-03-21T00:48:05.725Z,15.90
2023-03-21T00:49:05.596Z,15.40
2023-03-21T00:50:05.573Z,17.20
2023-03-21T00:51:05.559Z,16.10
2023-03-21T00:52:15.815Z,15.90
2023-03-21T00:53:05.497Z,16.20
2023-03-21T00:54:05.482Z,16.90
2023-03-21T00:55:05.451Z,16.00
2023-03-21T00:56:05.443Z,16.00
2023-03-21T00:57:05.400Z,16.80
2023-03-21T00:58:05.373Z,17.30
2023-03-21T00:59:05.362Z,15.90
2023-03-21T01:00:05.321Z,17.00
2023-03-21T01:01:05.359Z,18.30
2023-03-21T01:02:05.325Z,16.70
2023-03-21T01:03:17.509Z,16.50
2023-03-21T01:04:05.264Z,16.90
2023-03-21T01:05:05.227Z,17.10
2023-03-21T01:06:05.171Z,16.60
2023-03-21T01:07:05.152Z,18.00
2023-03-21T01:08:20.706Z,18.70
2023-03-21T01:09:05.102Z,18.10
2023-03-21T01:10:05.082Z,18.10
2023-03-21T01:11:05.060Z,17.00
2023-03-21T01:12:05.038Z,16.90
2023-03-21T01:13:04.998Z,17.30
2023-03-21T01:14:20.810Z,19.10
2023-03-21T01:15:04.947Z,19.20
2023-03-21T01:16:04.995Z,18.70
2023-03-21T01:17:04.904Z,19.00
2023-03-21T01:18:04.867Z,18.70
2023-03-21T01:19:07.025Z,19.50
2023-03-21T01:20:04.821Z,19.80
2023-03-21T01:21:04.803Z,19.20
2023-03-21T01:22:04.768Z,19.40
2023-03-21T01:23:04.745Z,20.60
2023-03-21T01:24:04.720Z,19.20
2023-03-21T01:25:21.138Z,19.30
2023-03-21T01:26:04.670Z,19.50
2023-03-21T01:27:04.644Z,19.70
2023-03-21T01:28:04.644Z,21.50
2023-03-21T01:29:04.597Z,21.10
2023-03-21T01:30:11.215Z,21.40
2023-03-21T01:31:04.548Z,20.60
2023-03-21T01:32:04.531Z,20.90
2023-03-21T01:33:04.501Z,20.70
2023-03-21T01:34:04.475Z,21.20
2023-03-21T01:35:04.446Z,21.10
2023-03-21T01:36:12.844Z,22.00
2023-03-21T01:37:04.458Z,20.90
2023-03-21T01:38:04.368Z,20.50
2023-03-21T01:39:04.352Z,20.80
2023-03-21T01:40:04.314Z,21.20
2023-03-21T01:41:14.004Z,22.10
2023-03-21T01:42:04.264Z,22.10
2023-03-21T01:43:04.243Z,21.20
2023-03-21T01:44:04.240Z,21.60
2023-03-21T01:45:04.202Z,22.70
2023-03-21T01:46:04.189Z,23.90
2023-03-21T01:47:11.200Z,24.30
2023-03-21T01:48:04.125Z,23.00
2023-03-21T01:49:04.091Z,24.00
2023-03-21T01:50:04.059Z,23.50
2023-03-21T01:51:04.054Z,24.90
2023-03-21T01:52:12.797Z,24.70
2023-03-21T01:53:03.991Z,25.60
2023-03-21T01:54:03.966Z,26.10
2023-03-21T01:55:03.945Z,25.90
2023-03-21T01:56:03.925Z,25.20
2023-03-21T01:57:03.894Z,25.10
2023-03-21T01:58:07.097Z,25.60
2023-03-21T01:59:03.854Z,26.10
2023-03-21T02:00:03.835Z,26.10
2023-03-21T02:01:03.833Z,25.30
2023-03-21T02:02:03.761Z,25.30
2023-03-21T02:03:13.643Z,24.30
2023-03-21T02:04:03.863Z,25.80
2023-03-21T02:05:03.696Z,25.10
2023-03-21T02:06:03.666Z,25.90
2023-03-21T02:07:03.655Z,26.20
2023-03-21T02:08:03.612Z,25.20
2023-03-21T02:09:03.593Z,24.80
2023-03-21T02:10:03.576Z,25.90
2023-03-21T02:11:03.541Z,24.40
2023-03-21T02:12:03.518Z,25.00
2023-03-21T02:13:03.493Z,26.10
2023-03-21T02:14:06.538Z,25.70
2023-03-21T02:15:03.443Z,25.00
2023-03-21T02:16:03.433Z,24.80
2023-03-21T02:17:03.389Z,24.50
2023-03-21T02:18:03.361Z,24.50
2023-03-21T02:19:03.351Z,24.40
2023-03-21T02:20:03.319Z,24.50
2023-03-21T02:21:03.298Z,23.90
2023-03-21T02:22:03.264Z,24.40
2023-03-21T02:23:03.239Z,22.90
2023-03-21T02:24:03.227Z,23.70
2023-03-21T02:25:08.319Z,24.40
2023-03-21T02:26:03.161Z,24.40
2023-03-21T02:27:04.677Z,23.00
2023-03-21T02:28:03.130Z,23.00
2023-03-21T02:29:03.094Z,23.70
2023-03-21T02:30:03.080Z,23.80
2023-03-21T02:31:03.101Z,24.30
2023-03-21T02:32:15.139Z,23.80
2023-03-21T02:33:02.996Z,23.50
2023-03-21T02:34:02.964Z,24.70
2023-03-21T02:35:02.952Z,21.90
2023-03-21T02:36:11.930Z,25.00
2023-03-21T02:37:02.889Z,24.10
2023-03-21T02:38:02.864Z,23.80
2023-03-21T02:39:02.852Z,23.40
2023-03-21T02:40:02.818Z,24.20
2023-03-21T02:41:05.333Z,22.40
2023-03-21T02:42:02.762Z,23.50
2023-03-21T02:43:03.059Z,24.10
2023-03-21T02:44:02.720Z,23.00
2023-03-21T02:45:02.706Z,23.70
2023-03-21T02:46:02.819Z,23.80
2023-03-21T02:47:06.307Z,24.00
2023-03-21T02:48:03.013Z,24.30
2023-03-21T02:49:02.616Z,23.20
2023-03-21T02:50:02.563Z,25.10
2023-03-21T02:51:02.556Z,24.10
2023-03-21T02:52:12.283Z,24.70
2023-03-21T02:53:02.495Z,24.10
2023-03-21T02:54:27.849Z,24.20
2023-03-21T02:55:02.442Z,24.00
2023-03-21T02:56:02.411Z,24.80
2023-03-21T02:57:02.393Z,23.90
2023-03-21T02:58:12.384Z,23.00
2023-03-21T02:59:02.380Z,24.80
2023-03-21T03:00:10.642Z,24.10
2023-03-21T03:01:02.299Z,24.70
2023-03-21T03:02:02.267Z,24.10
2023-03-21T03:03:09.939Z,24.20
2023-03-21T03:04:02.314Z,25.00
2023-03-21T03:05:06.456Z,23.60
2023-03-21T03:06:02.177Z,24.30
2023-03-21T03:07:02.141Z,23.10
2023-03-21T03:08:02.133Z,22.50
2023-03-21T03:09:03.172Z,23.60
2023-03-21T03:10:02.070Z,23.40
2023-03-21T03:11:02.045Z,23.70
2023-03-21T03:12:02.017Z,22.40
2023-03-21T03:13:02.003Z,22.80
2023-03-21T03:14:15.559Z,22.20
2023-03-21T03:15:03.972Z,22.00
2023-03-21T03:16:02.010Z,21.60
2023-03-21T03:17:01.894Z,23.50
2023-03-21T03:18:01.873Z,21.30
2023-03-21T03:19:01.849Z,20.20
2023-03-21T03:20:15.209Z,20.50
2023-03-21T03:21:01.797Z,21.20
2023-03-21T03:22:01.767Z,20.50
2023-03-21T03:23:01.750Z,19.40
2023-03-21T03:24:01.740Z,19.20
2023-03-21T03:25:09.645Z,20.10
2023-03-21T03:26:01.667Z,19.90
2023-03-21T03:27:01.643Z,19.80
2023-03-21T03:28:01.622Z,19.20
2023-03-21T03:29:01.598Z,19.30
2023-03-21T03:30:01.571Z,19.30
2023-03-21T03:31:09.060Z,19.40
2023-03-21T03:32:01.619Z,19.30
2023-03-21T03:33:01.496Z,18.40
2023-03-21T03:34:01.470Z,18.20
2023-03-21T03:35:01.440Z,19.40
2023-03-21T03:36:06.770Z,19.10
2023-03-21T03:37:01.430Z,18.60
2023-03-21T03:38:01.365Z,18.80
2023-03-21T03:39:01.339Z,19.80
2023-03-21T03:40:01.311Z,18.60
2023-03-21T03:41:01.291Z,19.20
2023-03-21T03:42:15.372Z,20.20
2023-03-21T03:43:01.249Z,18.80
2023-03-21T03:44:01.231Z,19.70
2023-03-21T03:45:01.207Z,18.40
2023-03-21T03:46:01.159Z,19.30
2023-03-21T03:47:01.147Z,17.80
2023-03-21T03:48:01.167Z,19.00
2023-03-21T03:49:01.088Z,20.30
2023-03-21T03:50:01.070Z,19.50
2023-03-21T03:51:01.040Z,18.10
2023-03-21T03:52:01.029Z,19.00
2023-03-21T03:53:02.970Z,19.60
2023-03-21T03:54:00.971Z,19.90
2023-03-21T03:55:00.947Z,19.80
2023-03-21T03:56:00.919Z,20.10
2023-03-21T03:57:00.901Z,19.10
2023-03-21T03:58:02.020Z,20.00
2023-03-21T03:59:00.857Z,19.50
2023-03-21T04:00:00.816Z,20.20
2023-03-21T04:01:00.793Z,18.90
2023-03-21T04:02:00.813Z,19.60
2023-03-21T04:03:00.893Z,19.10
2023-03-21T04:04:12.347Z,19.10
2023-03-21T04:05:00.690Z,19.30
2023-03-21T04:06:00.666Z,17.70
2023-03-21T04:07:00.645Z,18.50
2023-03-21T04:08:00.664Z,17.40
2023-03-21T04:09:03.488Z,18.70
2023-03-21T04:10:00.566Z,17.30
2023-03-21T04:11:00.548Z,18.30
2023-03-21T04:12:00.519Z,16.80
2023-03-21T04:13:00.494Z,17.20
2023-03-21T04:14:00.469Z,17.80
2023-03-21T04:15:10.821Z,17.70
2023-03-21T04:16:00.501Z,16.50
2023-03-21T04:17:00.398Z,16.20
2023-03-21T04:18:00.369Z,16.20
2023-03-21T04:19:00.346Z,16.40
2023-03-21T04:20:10.934Z,16.50
2023-03-21T04:21:00.303Z,16.20
2023-03-21T04:22:00.266Z,15.70
2023-03-21T04:23:00.247Z,15.40
2023-03-21T04:24:00.242Z,15.70
2023-03-21T04:25:00.633Z,16.60
2023-03-21T04:26:00.171Z,16.00
2023-03-21T04:27:00.171Z,16.00
2023-03-21T04:28:00.154Z,16.80
2023-03-21T04:29:00.130Z,16.90
2023-03-21T04:30:00.097Z,15.70
2023-03-21T04:31:05.224Z,16.50
2023-03-21T04:32:00.152Z,15.50
2023-03-21T04:32:59.998Z,16.90
2023-03-21T04:33:59.969Z,16.40
2023-03-21T04:34:59.943Z,16.30
2023-03-21T04:35:59.921Z,17.30
2023-03-21T04:36:59.897Z,17.20
2023-03-21T04:37:59.864Z,15.90
2023-03-21T04:38:59.844Z,16.40
2023-03-21T04:39:59.840Z,15.80
2023-03-21T04:40:59.797Z,16.60
2023-03-21T04:41:59.764Z,17.10
2023-03-21T04:42:59.749Z,17.90
2023-03-21T04:43:59.725Z,17.10
2023-03-21T04:44:59.697Z,16.40
2023-03-21T04:45:59.739Z,17.60
2023-03-21T04:46:59.648Z,17.00
2023-03-21T04:47:59.648Z,16.40
2023-03-21T04:48:59.594Z,17.20
2023-03-21T04:49:59.565Z,17.40
2023-03-21T04:50:59.542Z,17.40
2023-03-21T04:51:59.512Z,16.40
2023-03-21T04:52:59.494Z,16.40
2023-03-21T04:53:59.476Z,15.80
2023-03-21T04:54:59.453Z,17.20
2023-03-21T04:55:59.445Z,16.30
2023-03-21T04:56:59.398Z,16.20
2023-03-21T04:57:59.385Z,16.90
2023-03-21T04:58:59.342Z,15.90
2023-03-21T04:59:59.318Z,17.10
2023-03-21T05:00:59.346Z,17.10
2023-03-21T05:01:59.278Z,17.70
2023-03-21T05:02:59.247Z,16.80
2023-03-21T05:03:59.316Z,16.60
2023-03-21T05:04:59.192Z,16.90
2023-03-21T05:05:59.165Z,18.10
2023-03-21T05:06:59.153Z,16.40
2023-03-21T05:07:59.128Z,15.80
2023-03-21T05:08:59.091Z,17.90
2023-03-21T05:10:01.257Z,16.80
2023-03-21T05:10:59.038Z,17.40
2023-03-21T05:11:59.040Z,17.40
2023-03-21T05:12:59.012Z,16.50
2023-03-21T05:13:58.969Z,17.90
2023-03-21T05:14:58.948Z,17.30
2023-03-21T05:15:58.917Z,16.50
2023-03-21T05:16:58.949Z,18.10
2023-03-21T05:17:58.871Z,18.10
2023-03-21T05:18:58.842Z,16.90
2023-03-21T05:19:58.821Z,16.50
2023-03-21T05:20:58.794Z,17.50
2023-03-21T05:21:58.772Z,17.40
2023-03-21T05:22:58.744Z,17.40
2023-03-21T05:23:58.734Z,17.80
2023-03-21T05:24:58.690Z,16.20
2023-03-21T05:25:58.672Z,17.30
2023-03-21T05:27:01.205Z,17.40
2023-03-21T05:27:58.642Z,17.20
2023-03-21T05:28:58.589Z,17.60
2023-03-21T05:29:58.573Z,16.70
2023-03-21T05:30:58.654Z,17.90
2023-03-21T05:31:58.539Z,16.50
2023-03-21T05:32:58.504Z,18.00
2023-03-21T05:33:58.478Z,16.90
2023-03-21T05:34:58.448Z,15.90
2023-03-21T05:35:58.471Z,16.90
2023-03-21T05:36:58.396Z,17.30
2023-03-21T05:37:58.372Z,17.30
2023-03-21T05:38:58.343Z,16.60
2023-03-21T05:39:58.326Z,16.40
2023-03-21T05:40:58.296Z,16.70
2023-03-21T05:41:58.275Z,17.40
2023-03-21T05:42:58.241Z,16.80
2023-03-21T05:43:58.242Z,16.40
2023-03-21T05:44:58.198Z,16.40
2023-03-21T05:45:58.248Z,16.50
2023-03-21T05:46:58.144Z,16.30
2023-03-21T05:47:58.179Z,17.70
2023-03-21T05:48:58.092Z,17.00
2023-03-21T05:49:58.073Z,16.20
2023-03-21T05:50:58.044Z,17.20
2023-03-21T05:51:58.023Z,17.00
2023-03-21T05:52:58.002Z,16.60
2023-03-21T05:53:57.978Z,16.10
2023-03-21T05:54:57.950Z,15.50
2023-03-21T05:55:57.934Z,16.60
2023-03-21T05:56:57.898Z,16.00
2023-03-21T05:57:57.879Z,16.20
2023-03-21T05:58:57.854Z,15.80
2023-03-21T05:59:57.851Z,16.80
2023-03-21T06:00:57.800Z,16.90
2023-03-21T06:01:57.786Z,16.20
2023-03-21T06:02:57.800Z,16.40
2023-03-21T06:03:57.764Z,15.80
2023-03-21T06:04:57.700Z,15.50
2023-03-21T06:05:57.680Z,15.30
2023-03-21T06:06:57.652Z,15.10
2023-03-21T06:07:57.626Z,15.10
2023-03-21T06:08:57.599Z,16.10
2023-03-21T06:09:57.612Z,15.80
2023-03-21T06:10:57.555Z,16.70
2023-03-21T06:11:57.525Z,16.10
2023-03-21T06:12:57.498Z,16.70
2023-03-21T06:13:57.478Z,16.50
2023-03-21T06:14:57.456Z,16.10
2023-03-21T06:15:57.585Z,16.50
2023-03-21T06:16:57.402Z,16.60
2023-03-21T06:17:57.383Z,15.70
2023-03-21T06:18:57.351Z,15.90
2023-03-21T06:19:57.327Z,15.50
2023-03-21T06:20:57.305Z,15.90
2023-03-21T06:21:57.281Z,15.70
2023-03-21T06:22:57.257Z,15.10
2023-03-21T06:23:57.249Z,15.50
2023-03-21T06:24:57.206Z,14.60
2023-03-21T06:25:57.183Z,16.20
2023-03-21T06:26:57.153Z,15.20
2023-03-21T06:27:57.133Z,16.80
2023-03-21T06:28:57.109Z,16.30
2023-03-21T06:29:57.077Z,15.70
2023-03-21T06:30:57.109Z,15.60
2023-03-21T06:31:57.063Z,17.20
2023-03-21T06:32:57.005Z,16.10
2023-03-21T06:33:56.977Z,15.70
2023-03-21T06:34:56.950Z,15.60
2023-03-21T06:35:57.001Z,16.30
2023-03-21T06:36:57.902Z,16.80
2023-03-21T06:37:56.880Z,15.70
2023-03-21T06:38:56.851Z,17.00
2023-03-21T06:39:56.829Z,16.70
2023-03-21T06:40:56.801Z,16.40
2023-03-21T06:41:56.776Z,17.10
2023-03-21T06:42:56.753Z,17.60
2023-03-21T06:43:56.728Z,16.40
2023-03-21T06:44:56.696Z,17.90
2023-03-21T06:45:56.677Z,17.10
2023-03-21T06:46:56.712Z,17.20
2023-03-21T06:47:56.736Z,15.90
2023-03-21T06:48:56.596Z,17.00
2023-03-21T06:49:56.586Z,16.60
2023-03-21T06:50:56.553Z,17.40
2023-03-21T06:51:56.535Z,16.80
2023-03-21T06:52:56.508Z,17.30
2023-03-21T06:53:56.487Z,16.00
2023-03-21T06:54:56.474Z,17.70
2023-03-21T06:55:56.434Z,17.20
2023-03-21T06:56:56.405Z,16.90
2023-03-21T06:57:56.379Z,16.50
2023-03-21T06:58:56.358Z,15.60
2023-03-21T06:59:56.325Z,17.00
2023-03-21T07:00:56.338Z,17.20
2023-03-21T07:01:56.277Z,15.60
2023-03-21T07:02:56.343Z,15.20
2023-03-21T07:03:56.248Z,16.80
2023-03-21T07:04:56.199Z,15.70
2023-03-21T07:05:56.180Z,16.50
2023-03-21T07:06:56.156Z,16.00
2023-03-21T07:07:56.128Z,16.50
2023-03-21T07:08:56.108Z,15.70
2023-03-21T07:09:56.080Z,17.10
2023-03-21T07:10:56.056Z,15.90
2023-03-21T07:11:56.042Z,16.60
2023-03-21T07:12:56.001Z,16.20
2023-03-21T07:13:55.984Z,15.70
2023-03-21T07:14:55.953Z,15.20
2023-03-21T07:15:55.928Z,15.70
2023-03-21T07:16:55.906Z,15.40
2023-03-21T07:17:55.883Z,17.60
2023-03-21T07:18:55.858Z,17.10
2023-03-21T07:19:55.855Z,16.80
2023-03-21T07:20:55.811Z,15.60
2023-03-21T07:21:55.816Z,16.20
2023-03-21T07:22:55.756Z,15.60
2023-03-21T07:23:55.740Z,15.90
2023-03-21T07:25:04.312Z,16.40
2023-03-21T07:25:55.777Z,16.30
2023-03-21T07:26:55.660Z,15.40
2023-03-21T07:27:55.643Z,16.70
2023-03-21T07:28:55.610Z,16.20
2023-03-21T07:29:55.585Z,16.70
2023-03-21T07:30:55.560Z,16.00
2023-03-21T07:31:55.578Z,16.30
2023-03-21T07:32:55.510Z,17.00
2023-03-21T07:33:55.486Z,17.60
2023-03-21T07:34:55.460Z,16.60
2023-03-21T07:35:55.542Z,15.70
2023-03-21T07:36:55.407Z,16.90
2023-03-21T07:37:55.391Z,16.40
2023-03-21T07:38:55.375Z,15.90
2023-03-21T07:39:55.333Z,15.70
2023-03-21T07:40:55.340Z,16.50
2023-03-21T07:41:55.286Z,17.00
2023-03-21T07:42:55.256Z,16.10
2023-03-21T07:43:55.237Z,16.40
2023-03-21T07:44:55.209Z,15.90
2023-03-21T07:45:55.274Z,16.70
2023-03-21T07:46:55.157Z,16.40
2023-03-21T07:47:55.140Z,16.00
2023-03-21T07:48:55.106Z,16.60
2023-03-21T07:49:55.107Z,16.00
2023-03-21T07:50:55.057Z,16.60
2023-03-21T07:51:55.064Z,16.60
2023-03-21T07:52:55.011Z,16.50
2023-03-21T07:53:54.986Z,16.10
2023-03-21T07:54:54.961Z,15.60
2023-03-21T07:55:54.940Z,16.40
2023-03-21T07:56:54.918Z,16.30
2023-03-21T07:57:54.889Z,16.40
2023-03-21T07:58:54.861Z,16.40
2023-03-21T07:59:54.943Z,17.00
2023-03-21T08:00:54.811Z,16.00
2023-03-21T08:01:54.876Z,16.50
2023-03-21T08:02:57.876Z,15.30
2023-03-21T08:03:54.829Z,16.20
2023-03-21T08:04:54.714Z,15.20
2023-03-21T08:05:54.696Z,15.50
2023-03-21T08:06:54.696Z,14.60
2023-03-21T08:07:54.667Z,16.10
2023-03-21T08:08:54.621Z,15.10
2023-03-21T08:09:54.593Z,16.40
2023-03-21T08:10:54.566Z,15.70
2023-03-21T08:11:54.545Z,16.10
2023-03-21T08:12:54.528Z,16.30
2023-03-21T08:13:54.499Z,16.30
2023-03-21T08:14:54.466Z,16.00
2023-03-21T08:15:54.454Z,16.30
2023-03-21T08:16:54.490Z,16.20
2023-03-21T08:17:54.433Z,16.30
2023-03-21T08:18:54.404Z,16.60
2023-03-21T08:19:54.343Z,17.10
2023-03-21T08:20:54.328Z,16.20
2023-03-21T08:21:54.296Z,15.10
2023-03-21T08:22:54.266Z,15.30
2023-03-21T08:23:54.269Z,15.70
2023-03-21T08:24:54.217Z,15.80
2023-03-21T08:25:54.196Z,15.90
2023-03-21T08:26:54.174Z,15.30
2023-03-21T08:27:54.144Z,15.30
2023-03-21T08:28:54.119Z,16.20
2023-03-21T08:29:54.098Z,16.00
2023-03-21T08:30:54.144Z,15.80
2023-03-21T08:31:54.047Z,14.90
2023-03-21T08:32:54.015Z,15.80
2023-03-21T08:33:54.013Z,15.30
2023-03-21T08:34:53.980Z,15.40
2023-03-21T08:35:53.973Z,14.50
2023-03-21T08:36:53.920Z,16.00
2023-03-21T08:37:53.899Z,15.50
2023-03-21T08:38:53.871Z,15.50
2023-03-21T08:39:53.920Z,15.00
2023-03-21T08:40:53.823Z,15.00
2023-03-21T08:41:53.799Z,15.00
2023-03-21T08:42:53.770Z,16.20
2023-03-21T08:43:53.752Z,15.40
2023-03-21T08:44:53.723Z,15.20
2023-03-21T08:45:53.710Z,15.10
2023-03-21T08:46:53.691Z,15.10
2023-03-21T08:47:53.722Z,15.40
2023-03-21T08:48:53.623Z,15.20
2023-03-21T08:49:53.602Z,15.10
2023-03-21T08:50:53.579Z,14.60
2023-03-21T08:51:53.550Z,14.50
2023-03-21T08:52:53.526Z,14.50
2023-03-21T08:53:53.500Z,15.00
2023-03-21T08:54:53.479Z,14.50
2023-03-21T08:55:53.487Z,15.70
2023-03-21T08:56:53.422Z,14.50
2023-03-21T08:57:53.408Z,14.90
2023-03-21T08:58:53.382Z,14.90
2023-03-21T08:59:53.358Z,15.30
2023-03-21T09:00:53.343Z,15.00
2023-03-21T09:01:53.357Z,15.20
2023-03-21T09:02:53.282Z,14.50
2023-03-21T09:03:53.261Z,15.20
2023-03-21T09:04:53.374Z,15.00
2023-03-21T09:05:53.208Z,14.70
2023-03-21T09:06:53.184Z,15.00
2023-03-21T09:07:53.179Z,15.50
2023-03-21T09:08:53.137Z,14.50
2023-03-21T09:10:08.121Z,14.20
2023-03-21T09:10:53.084Z,14.70
2023-03-21T09:11:53.080Z,14.30
2023-03-21T09:12:53.031Z,14.90
2023-03-21T09:13:53.012Z,16.00
2023-03-21T09:14:52.982Z,15.00
2023-03-21T09:15:53.037Z,14.30
2023-03-21T09:16:52.943Z,14.20
2023-03-21T09:17:53.333Z,14.20
2023-03-21T09:18:52.883Z,14.50
2023-03-21T09:19:52.855Z,14.20
2023-03-21T09:20:52.840Z,14.50
2023-03-21T09:21:52.803Z,14.00
2023-03-21T09:22:52.785Z,14.60
2023-03-21T09:23:52.770Z,14.50
2023-03-21T09:24:52.740Z,14.50
2023-03-21T09:25:52.708Z,15.00
2023-03-21T09:26:52.705Z,13.50
2023-03-21T09:27:52.693Z,14.90
2023-03-21T09:28:52.640Z,15.70
2023-03-21T09:29:52.613Z,14.00
2023-03-21T09:30:52.669Z,15.30
2023-03-21T09:31:52.556Z,13.70
2023-03-21T09:32:52.578Z,14.20
2023-03-21T09:33:52.550Z,14.60
2023-03-21T09:34:52.496Z,14.00
2023-03-21T09:35:52.473Z,14.10
2023-03-21T09:36:52.447Z,14.20
2023-03-21T09:37:52.620Z,13.50
2023-03-21T09:38:52.396Z,14.40
2023-03-21T09:39:52.371Z,14.30
2023-03-21T09:40:52.341Z,14.30
2023-03-21T09:41:52.312Z,14.50
2023-03-21T09:42:52.287Z,13.50
2023-03-21T09:43:52.285Z,13.70
2023-03-21T09:44:52.243Z,14.50
2023-03-21T09:45:52.215Z,14.00
2023-03-21T09:46:52.275Z,13.60
2023-03-21T09:47:52.231Z,13.80
2023-03-21T09:48:57.211Z,13.70
2023-03-21T09:49:54.667Z,12.70
2023-03-21T09:50:52.111Z,12.90
2023-03-21T09:51:52.077Z,13.80
2023-03-21T09:52:52.074Z,12.50
2023-03-21T09:53:52.025Z,13.10
2023-03-21T09:54:52.001Z,13.50
2023-03-21T09:55:52.017Z,13.80
2023-03-21T09:56:51.946Z,13.10
2023-03-21T09:57:51.920Z,13.70
2023-03-21T09:58:51.901Z,12.90
2023-03-21T09:59:51.890Z,13.10
2023-03-21T10:00:51.889Z,13.30
2023-03-21T10:01:51.840Z,14.10
2023-03-21T10:02:51.830Z,13.30
2023-03-21T10:03:51.769Z,13.30
2023-03-21T10:04:51.838Z,13.00
2023-03-21T10:05:51.721Z,12.50
2023-03-21T10:06:51.696Z,12.40
2023-03-21T10:07:51.671Z,13.00
2023-03-21T10:08:51.650Z,13.20
2023-03-21T10:09:51.624Z,12.60
2023-03-21T10:10:51.598Z,12.10
2023-03-21T10:11:51.574Z,13.00
2023-03-21T10:12:51.556Z,11.60
2023-03-21T10:13:51.528Z,13.10
2023-03-21T10:14:51.509Z,12.30
2023-03-21T10:15:51.521Z,12.00
2023-03-21T10:16:51.498Z,12.90
2023-03-21T10:17:51.423Z,12.90
2023-03-21T10:18:51.407Z,12.10
2023-03-21T10:19:51.375Z,12.20
2023-03-21T10:20:51.358Z,13.50
2023-03-21T10:22:00.686Z,13.70
2023-03-21T10:22:51.312Z,12.70
2023-03-21T10:23:51.288Z,13.10
2023-03-21T10:24:51.257Z,13.00
2023-03-21T10:25:51.274Z,12.70
2023-03-21T10:26:51.213Z,13.20
2023-03-21T10:27:51.177Z,15.50
2023-03-21T10:28:53.328Z,12.70
2023-03-21T10:29:51.136Z,12.80
2023-03-21T10:30:51.124Z,12.80
2023-03-21T10:31:51.206Z,12.30
2023-03-21T10:32:51.083Z,12.10
2023-03-21T10:33:51.037Z,13.90
2023-03-21T10:34:51.019Z,13.20
2023-03-21T10:35:51.004Z,13.20
2023-03-21T10:36:50.966Z,12.60
2023-03-21T10:37:50.931Z,11.70
2023-03-21T10:38:50.925Z,13.00
2023-03-21T10:39:50.888Z,12.40
2023-03-21T10:40:50.867Z,12.90
2023-03-21T10:41:50.835Z,12.40
2023-03-21T10:42:50.817Z,12.60
2023-03-21T10:43:50.792Z,12.70
2023-03-21T10:44:50.773Z,13.70
2023-03-21T10:45:50.977Z,13.30
2023-03-21T10:46:50.946Z,12.10
2023-03-21T10:47:51.004Z,13.00
2023-03-21T10:48:50.781Z,12.30
2023-03-21T10:50:06.830Z,11.80
2023-03-21T10:50:50.698Z,11.90
2023-03-21T10:51:50.596Z,12.50
2023-03-21T10:52:50.579Z,12.20
2023-03-21T10:53:50.549Z,12.70
2023-03-21T10:54:50.530Z,13.20
2023-03-21T10:55:50.505Z,12.50
2023-03-21T10:56:50.474Z,11.70
2023-03-21T10:57:50.452Z,14.20
2023-03-21T10:58:50.425Z,12.80
2023-03-21T10:59:50.403Z,12.60
2023-03-21T11:00:50.401Z,12.60
2023-03-21T11:01:50.355Z,13.20
2023-03-21T11:02:50.523Z,12.70
2023-03-21T11:03:50.331Z,12.80
2023-03-21T11:04:50.279Z,12.20
2023-03-21T11:05:50.263Z,12.20
2023-03-21T11:06:50.241Z,12.70
2023-03-21T11:07:50.209Z,12.70
2023-03-21T11:08:50.192Z,12.10
2023-03-21T11:09:53.517Z,12.00
2023-03-21T11:10:50.143Z,11.90
2023-03-21T11:11:50.112Z,13.10
2023-03-21T11:12:50.094Z,12.50
2023-03-21T11:13:50.066Z,12.80
2023-03-21T11:14:50.047Z,13.10
2023-03-21T11:15:50.018Z,12.60
2023-03-21T11:16:50.029Z,12.90
2023-03-21T11:17:49.971Z,12.70
2023-03-21T11:18:49.953Z,13.00
2023-03-21T11:19:49.946Z,12.60
2023-03-21T11:20:49.908Z,12.40
2023-03-21T11:21:49.876Z,13.20
2023-03-21T11:22:49.859Z,13.30
2023-03-21T11:23:49.824Z,13.20
2023-03-21T11:24:49.804Z,13.20
2023-03-21T11:25:49.788Z,13.00
2023-03-21T11:26:49.772Z,12.60
2023-03-21T11:27:49.732Z,13.60
2023-03-21T11:28:49.705Z,13.40
2023-03-21T11:29:49.678Z,12.80
2023-03-21T11:30:49.686Z,13.50
2023-03-21T11:31:49.634Z,13.20
2023-03-21T11:32:49.621Z,13.90
2023-03-21T11:33:49.583Z,12.80
2023-03-21T11:34:49.563Z,13.20
2023-03-21T11:35:49.629Z,13.10
2023-03-21T11:36:49.508Z,13.50
2023-03-21T11:37:49.490Z,13.40
2023-03-21T11:38:49.461Z,13.80
2023-03-21T11:39:49.438Z,13.60
2023-03-21T11:40:49.414Z,12.40
2023-03-21T11:41:49.390Z,14.10
2023-03-21T11:42:49.370Z,13.70
2023-03-21T11:43:49.347Z,12.90
2023-03-21T11:44:49.318Z,12.90
2023-03-21T11:45:49.318Z,14.20
2023-03-21T11:46:49.268Z,13.10
2023-03-21T11:47:49.332Z,12.60
2023-03-21T11:48:49.223Z,12.80
2023-03-21T11:49:51.325Z,12.90
2023-03-21T11:50:49.175Z,12.80
2023-03-21T11:51:49.167Z,12.10
2023-03-21T11:52:49.122Z,13.20
2023-03-21T11:53:49.099Z,12.40
2023-03-21T11:54:49.072Z,12.40
2023-03-21T11:55:49.047Z,13.50
2023-03-21T11:56:49.027Z,13.30
2023-03-21T11:57:49.001Z,12.90
2023-03-21T11:58:49.001Z,12.90
2023-03-21T11:59:48.950Z,13.00
2023-03-21T12:00:48.932Z,12.90
2023-03-21T12:01:48.904Z,13.40
2023-03-21T12:02:48.931Z,13.40
2023-03-21T12:03:49.348Z,13.60
2023-03-21T12:04:48.842Z,13.40
2023-03-21T12:05:48.812Z,12.00
2023-03-21T12:06:48.799Z,13.00
2023-03-21T12:07:48.786Z,13.30
2023-03-21T12:08:48.738Z,12.90
2023-03-21T12:09:48.709Z,13.00
2023-03-21T12:10:48.688Z,12.40
2023-03-21T12:11:48.663Z,13.40
2023-03-21T12:12:48.643Z,13.30
2023-03-21T12:13:48.626Z,13.00
2023-03-21T12:14:48.609Z,14.20
2023-03-21T12:15:48.588Z,14.10
2023-03-21T12:16:48.548Z,13.40
2023-03-21T12:17:48.517Z,14.40
2023-03-21T12:18:48.496Z,14.50
2023-03-21T12:19:48.460Z,13.90
2023-03-21T12:20:48.446Z,15.00
2023-03-21T12:21:48.418Z,14.40
2023-03-21T12:22:48.405Z,15.00
2023-03-21T12:23:48.427Z,13.90
2023-03-21T12:24:48.348Z,13.10
2023-03-21T12:25:48.333Z,13.50
2023-03-21T12:26:48.306Z,13.80
2023-03-21T12:27:48.283Z,13.60
2023-03-21T12:28:48.254Z,12.40
2023-03-21T12:29:48.216Z,12.80
2023-03-21T12:30:48.222Z,14.10
2023-03-21T12:31:48.226Z,12.60
2023-03-21T12:32:48.156Z,11.90
2023-03-21T12:33:48.131Z,10.90
2023-03-21T12:34:48.104Z,11.50
2023-03-21T12:35:48.174Z,11.40
2023-03-21T12:36:48.060Z,11.10
2023-03-21T12:37:48.029Z,12.30
2023-03-21T12:38:48.005Z,11.80
2023-03-21T12:39:48.105Z,11.00
2023-03-21T12:40:47.962Z,10.70
2023-03-21T12:41:47.932Z,10.30
2023-03-21T12:42:47.914Z,10.00
2023-03-21T12:43:47.881Z,10.10
2023-03-21T12:44:47.870Z,9.30
2023-03-21T12:45:48.004Z,8.80
2023-03-21T12:46:47.914Z,8.90
2023-03-21T12:47:47.829Z,10.00
2023-03-21T12:48:47.778Z,8.50
2023-03-21T12:49:47.737Z,9.40
2023-03-21T12:50:47.732Z,8.90
2023-03-21T12:51:47.682Z,9.00